Hlavní strana
METAR-TAF:

METAR-TAF

Letiště :

Santander, Španělsko

zeměpisná šířka: 43-26N, zeměpisná délka: 003-49W, výška: 6 m

Aktuální stav počasí

Zpráva byla vytvořena před 18 minutami, v 04:30 UTC
Bezvětří
Teplota 12°C
Vlhkost vzduchu 94%
Tlak 1029 hPa
Viditelnost: 6000 m

METAR: LEXJ 260430Z AUTO 00000KT 6000 NCD 12/11 Q1029

Čas: 06:48 (04:48 UTC)

Předpověď počasí

Zpráva byla vytvořena před 2 hodinami a 48 minutami, v 02:00 UTC
Předpověď platná od 26 v 03 UTC do 27 v 03 UTC
vítr z různých směrů 5 kt
Viditelnost 10 km a více
Skoro jasno ve výšce 3000 ft
Dočasný
od 26 v 11 UTC do 26 v 18 UTC
Severovýchodní vítr 11 kt

TAF: LEXJ 260200Z 2603/2703 VRB05KT 9999 FEW030 TX21/2614Z TN12/2605Z TEMPO 2611/2618 04011KT

Stav a předpovědi počasí z více než 4 000 letišť (zprávy METAR a TAF).

Červené a žluté tečky na mapě představují dostupné meteorologické stanice.

Když kurzor umístíte na tečku, zobrazí se název stanice.

Pak kliknutím zobrazíte stav a předpověď počasí.

Chcete-li změnit mapu, kliknutím na zelené tlačítko se znaménkem +mapu přiblížíte, kliknutím na zelené tlačítko se znaménkem – mapu oddálíte a kliknutím na zelené šipky přejdete na sousední mapy.


METAR-TAF: